createdAt,value
2023-03-22T00:01:29.289Z,32.90
2023-03-22T00:03:58.702Z,37.70
2023-03-22T00:06:27.882Z,33.30
2023-03-22T00:08:56.970Z,36.00
2023-03-22T00:11:26.573Z,35.10
2023-03-22T00:13:55.559Z,36.10
2023-03-22T00:16:24.534Z,36.50
2023-03-22T00:18:53.639Z,35.30
2023-03-22T00:21:23.366Z,28.50
2023-03-22T00:23:52.571Z,33.30
2023-03-22T00:26:21.173Z,32.30
2023-03-22T00:28:50.499Z,30.40
2023-03-22T00:31:20.294Z,34.70
2023-03-22T00:33:50.294Z,32.20
2023-03-22T00:36:19.074Z,29.20
2023-03-22T00:38:52.365Z,29.20
2023-03-22T00:41:23.267Z,35.50
2023-03-22T00:43:52.595Z,34.10
2023-03-22T00:46:22.271Z,31.50
2023-03-22T00:48:51.018Z,30.60
2023-03-22T00:51:20.226Z,29.90
2023-03-22T00:53:54.410Z,31.70
2023-03-22T00:56:26.069Z,36.70
2023-03-22T00:59:24.661Z,28.70
2023-03-22T01:01:53.237Z,31.60
2023-03-22T01:04:26.486Z,34.00
2023-03-22T01:06:59.828Z,31.40
2023-03-22T01:09:31.389Z,27.30
2023-03-22T01:12:02.230Z,33.20
2023-03-22T01:14:32.220Z,32.70
2023-03-22T01:17:01.054Z,32.80
2023-03-22T01:19:29.904Z,30.70
2023-03-22T01:21:58.576Z,34.60
2023-03-22T01:24:27.680Z,27.80
2023-03-22T01:26:56.886Z,28.70
2023-03-22T01:29:26.088Z,31.70
2023-03-22T01:31:54.966Z,29.00
2023-03-22T01:34:23.847Z,33.20
2023-03-22T01:36:52.941Z,34.00
2023-03-22T01:39:22.042Z,31.10
2023-03-22T01:41:52.373Z,31.00
2023-03-22T01:44:23.057Z,32.70
2023-03-22T01:46:53.020Z,34.20
2023-03-22T01:49:31.818Z,32.50
2023-03-22T01:52:07.521Z,35.50
2023-03-22T01:55:12.990Z,35.30
2023-03-22T01:57:46.128Z,35.60
2023-03-22T02:00:19.210Z,30.60
2023-03-22T02:03:03.612Z,33.80
2023-03-22T02:05:37.690Z,31.70
2023-03-22T02:08:07.188Z,34.40
2023-03-22T02:10:52.170Z,31.80
2023-03-22T02:13:29.241Z,29.20
2023-03-22T02:16:35.411Z,31.60
2023-03-22T02:19:31.265Z,32.10
2023-03-22T02:22:30.423Z,31.20
2023-03-22T02:25:21.229Z,30.50
2023-03-22T02:27:52.673Z,31.20
2023-03-22T02:30:43.063Z,32.60
2023-03-22T02:33:45.743Z,31.50
2023-03-22T02:36:32.957Z,33.50
2023-03-22T02:39:27.046Z,30.80
2023-03-22T02:42:21.642Z,30.90
2023-03-22T02:45:02.623Z,33.50
2023-03-22T02:47:38.996Z,32.80
2023-03-22T02:50:20.568Z,31.60
2023-03-22T02:52:54.690Z,34.20
2023-03-22T02:55:38.026Z,32.80
2023-03-22T02:58:15.601Z,31.40
2023-03-22T03:00:49.868Z,31.80
2023-03-22T03:03:19.942Z,32.80
2023-03-22T03:05:55.119Z,31.20
2023-03-22T03:08:24.489Z,32.40
2023-03-22T03:10:54.414Z,33.40
2023-03-22T03:13:23.480Z,34.10
2023-03-22T03:15:57.500Z,31.20
2023-03-22T03:18:32.947Z,31.80
2023-03-22T03:21:17.522Z,33.20
2023-03-22T03:24:21.940Z,31.00
2023-03-22T03:26:58.765Z,31.50
2023-03-22T03:29:32.704Z,31.50
2023-03-22T03:32:16.986Z,32.30
2023-03-22T03:34:55.626Z,30.60
2023-03-22T03:37:29.514Z,33.30
2023-03-22T03:40:11.481Z,34.60
2023-03-22T03:42:44.255Z,33.00
2023-03-22T03:45:14.304Z,31.50
2023-03-22T03:47:47.626Z,32.40
2023-03-22T03:50:16.782Z,32.50
2023-03-22T03:52:45.769Z,30.50
2023-03-22T03:55:14.575Z,29.80
2023-03-22T03:57:43.451Z,30.80
2023-03-22T04:00:17.245Z,32.80
2023-03-22T04:02:55.484Z,31.50
2023-03-22T04:05:45.179Z,32.00
2023-03-22T04:08:14.043Z,34.40
2023-03-22T04:10:42.624Z,30.60
2023-03-22T04:13:11.533Z,32.20
2023-03-22T04:15:40.804Z,32.20
2023-03-22T04:18:11.693Z,32.20
2023-03-22T04:20:42.093Z,32.30
2023-03-22T04:23:11.459Z,29.30
2023-03-22T04:25:40.678Z,30.70
2023-03-22T04:28:14.161Z,28.90
2023-03-22T04:30:46.258Z,30.20
2023-03-22T04:33:39.667Z,28.60
2023-03-22T04:36:18.960Z,31.00
2023-03-22T04:39:06.353Z,27.50
2023-03-22T04:41:36.308Z,27.90
2023-03-22T04:44:07.123Z,28.60
2023-03-22T04:46:38.561Z,28.90
2023-03-22T04:49:08.276Z,32.10
2023-03-22T04:51:39.614Z,30.20
2023-03-22T04:54:43.932Z,30.30
2023-03-22T04:57:14.160Z,26.70
2023-03-22T04:59:45.914Z,30.60
2023-03-22T05:02:14.910Z,29.30
2023-03-22T05:04:45.924Z,30.90
2023-03-22T05:07:29.989Z,31.50
2023-03-22T05:10:01.756Z,31.10
2023-03-22T05:12:31.055Z,29.60
2023-03-22T05:15:15.938Z,29.30
2023-03-22T05:17:45.315Z,29.00
2023-03-22T05:20:15.237Z,28.10
2023-03-22T05:22:45.763Z,28.10
2023-03-22T05:25:14.439Z,30.20
2023-03-22T05:27:45.488Z,29.90
2023-03-22T05:30:35.414Z,31.30
2023-03-22T05:33:10.196Z,27.20
2023-03-22T05:35:44.164Z,30.40
2023-03-22T05:38:13.204Z,31.50
2023-03-22T05:40:46.815Z,31.20
2023-03-22T05:43:16.007Z,30.00
2023-03-22T05:45:48.464Z,31.70
2023-03-22T05:48:49.834Z,29.50
2023-03-22T05:51:20.361Z,34.70
2023-03-22T05:53:52.926Z,31.20
2023-03-22T05:56:25.259Z,32.60
2023-03-22T05:59:02.391Z,31.80
2023-03-22T06:01:34.365Z,29.70
2023-03-22T06:04:16.395Z,31.40
2023-03-22T06:06:54.369Z,30.80
2023-03-22T06:09:56.123Z,32.20
2023-03-22T06:12:28.833Z,28.70
2023-03-22T06:15:04.122Z,31.50
2023-03-22T06:17:54.018Z,29.00
2023-03-22T06:20:26.077Z,29.10
2023-03-22T06:23:01.227Z,29.30
2023-03-22T06:25:30.005Z,31.30
2023-03-22T06:27:59.436Z,32.40
2023-03-22T06:30:28.731Z,30.10
2023-03-22T06:33:11.327Z,34.90
2023-03-22T06:35:42.264Z,35.70
2023-03-22T06:38:12.384Z,31.40
2023-03-22T06:40:41.526Z,32.80
2023-03-22T06:43:10.652Z,30.30
2023-03-22T06:45:40.929Z,32.10
2023-03-22T06:48:09.755Z,32.30
2023-03-22T06:50:54.459Z,30.30
2023-03-22T06:53:30.613Z,26.10
2023-03-22T06:55:59.608Z,31.00
2023-03-22T06:58:28.984Z,30.20
2023-03-22T07:00:58.668Z,29.10
2023-03-22T07:03:28.228Z,30.40
2023-03-22T07:06:08.390Z,31.00
2023-03-22T07:08:39.996Z,29.40
2023-03-22T07:11:09.409Z,33.30
2023-03-22T07:13:39.301Z,30.40
2023-03-22T07:16:12.260Z,32.00
2023-03-22T07:18:51.540Z,29.00
2023-03-22T07:21:20.548Z,31.70
2023-03-22T07:23:53.533Z,29.10
2023-03-22T07:26:22.810Z,29.70
2023-03-22T07:28:51.839Z,30.40
2023-03-22T07:31:21.845Z,27.40
2023-03-22T07:34:07.635Z,27.90
2023-03-22T07:36:43.171Z,29.70
2023-03-22T07:39:13.028Z,30.60
2023-03-22T07:41:45.363Z,28.00
2023-03-22T07:44:37.603Z,28.60
2023-03-22T07:47:12.119Z,31.70
2023-03-22T07:49:48.477Z,31.10
2023-03-22T07:52:21.562Z,30.90
2023-03-22T07:54:51.577Z,31.40
2023-03-22T07:57:20.691Z,27.40
2023-03-22T07:59:54.894Z,25.80
2023-03-22T08:02:25.336Z,27.30
2023-03-22T08:04:56.587Z,25.00
2023-03-22T08:07:46.277Z,27.80
2023-03-22T08:10:16.250Z,27.50
2023-03-22T08:12:45.255Z,26.90
2023-03-22T08:15:24.494Z,27.00
2023-03-22T08:17:53.375Z,26.90
2023-03-22T08:20:32.312Z,25.30
2023-03-22T08:23:03.769Z,23.20
2023-03-22T08:26:05.939Z,18.60
2023-03-22T08:28:37.784Z,22.40
2023-03-22T08:31:15.396Z,21.90
2023-03-22T08:33:45.499Z,21.20
2023-03-22T08:36:17.969Z,22.60
2023-03-22T08:38:53.941Z,22.00
2023-03-22T08:41:27.239Z,20.80
2023-03-22T08:43:56.729Z,20.90
2023-03-22T08:46:25.354Z,22.00
2023-03-22T08:48:54.401Z,22.30
2023-03-22T08:51:32.001Z,21.30
2023-03-22T08:54:14.414Z,23.30
2023-03-22T08:56:56.526Z,22.30
2023-03-22T08:59:37.790Z,24.10
2023-03-22T09:02:27.226Z,22.60
2023-03-22T09:04:57.081Z,20.90
2023-03-22T09:07:26.373Z,19.90
2023-03-22T09:10:20.872Z,21.60
2023-03-22T09:12:49.965Z,21.90
2023-03-22T09:15:19.157Z,22.40
2023-03-22T09:17:51.222Z,21.60
2023-03-22T09:20:25.756Z,21.60
2023-03-22T09:22:55.755Z,20.80
2023-03-22T09:25:24.847Z,20.80
2023-03-22T09:27:54.054Z,20.40
2023-03-22T09:30:22.745Z,19.10
2023-03-22T09:32:51.940Z,20.40
2023-03-22T09:35:22.249Z,19.80
2023-03-22T09:38:06.552Z,19.90
2023-03-22T09:40:36.888Z,18.70
2023-03-22T09:43:08.428Z,20.00
2023-03-22T09:45:42.316Z,21.50
2023-03-22T09:48:20.168Z,18.00
2023-03-22T09:50:54.163Z,17.80
2023-03-22T09:53:26.004Z,17.40
2023-03-22T09:55:59.761Z,16.80
2023-03-22T09:58:57.213Z,16.20
2023-03-22T10:01:57.499Z,18.10
2023-03-22T10:04:55.837Z,15.90
2023-03-22T10:07:37.937Z,16.50
2023-03-22T10:10:19.302Z,16.70
2023-03-22T10:13:01.009Z,16.30
2023-03-22T10:15:40.908Z,15.60
2023-03-22T10:18:17.109Z,17.10
2023-03-22T10:21:04.603Z,16.10
2023-03-22T10:23:57.478Z,15.80
2023-03-22T10:26:40.042Z,17.20
2023-03-22T10:29:16.054Z,15.20
2023-03-22T10:31:46.526Z,17.00
2023-03-22T10:34:22.866Z,16.10
2023-03-22T10:36:53.389Z,14.60
2023-03-22T10:39:27.456Z,16.30
2023-03-22T10:41:58.216Z,14.70
2023-03-22T10:44:29.573Z,15.30
2023-03-22T10:47:00.678Z,17.50
2023-03-22T10:49:33.113Z,15.20
2023-03-22T10:52:30.968Z,16.00
2023-03-22T10:55:03.693Z,14.40
2023-03-22T10:57:33.250Z,15.80
2023-03-22T11:00:08.789Z,17.30
2023-03-22T11:02:46.600Z,17.20
2023-03-22T11:05:30.547Z,17.60
2023-03-22T11:07:59.749Z,16.50
2023-03-22T11:10:33.103Z,16.90
2023-03-22T11:13:07.955Z,19.80
2023-03-22T11:15:44.056Z,16.80
2023-03-22T11:18:16.212Z,18.30
2023-03-22T11:20:57.425Z,19.10
2023-03-22T11:23:26.567Z,19.60
2023-03-22T11:25:57.701Z,16.50
2023-03-22T11:28:36.359Z,17.30
2023-03-22T11:31:13.705Z,12.40
2023-03-22T11:34:00.637Z,15.60
2023-03-22T11:36:30.216Z,15.40
2023-03-22T11:39:01.644Z,16.50
2023-03-22T11:41:32.733Z,16.40
2023-03-22T11:44:05.349Z,18.70
2023-03-22T11:46:36.569Z,15.80
2023-03-22T11:49:10.086Z,15.80
2023-03-22T11:51:40.187Z,16.80
2023-03-22T11:54:16.407Z,16.40
2023-03-22T11:56:47.678Z,16.20
2023-03-22T12:08:10.180Z,15.70
2023-03-22T12:10:41.763Z,15.30
2023-03-22T12:13:17.014Z,13.10
2023-03-22T12:15:50.081Z,15.10
2023-03-22T12:18:39.555Z,13.60
2023-03-22T12:21:11.333Z,14.00
2023-03-22T12:23:40.780Z,13.90
2023-03-22T12:26:13.252Z,11.50
2023-03-22T12:28:54.639Z,12.20
2023-03-22T12:31:43.075Z,10.00
2023-03-22T12:34:20.249Z,11.30
2023-03-22T12:36:55.516Z,11.40
2023-03-22T12:39:35.872Z,10.40
2023-03-22T12:42:47.937Z,10.10
2023-03-22T12:45:29.059Z,10.40
2023-03-22T12:48:11.198Z,10.90
2023-03-22T12:51:13.528Z,11.50
2023-03-22T12:53:49.307Z,10.40
2023-03-22T12:56:25.507Z,9.60
2023-03-22T12:59:02.184Z,10.70
2023-03-22T13:01:30.988Z,10.00
2023-03-22T13:04:00.613Z,10.70
2023-03-22T13:06:56.881Z,11.30
2023-03-22T13:09:29.228Z,10.30
2023-03-22T13:12:19.178Z,9.20
2023-03-22T13:14:51.264Z,9.90
2023-03-22T13:17:24.981Z,9.50
2023-03-22T13:19:56.440Z,10.10
2023-03-22T13:22:30.453Z,10.50
2023-03-22T13:25:09.047Z,10.20
2023-03-22T13:27:51.263Z,9.50
2023-03-22T13:30:27.459Z,10.90
2023-03-22T13:33:10.509Z,10.40
2023-03-22T13:36:01.198Z,11.10
2023-03-22T13:38:34.790Z,10.20
2023-03-22T13:41:20.019Z,10.10
2023-03-22T13:43:52.919Z,9.30
2023-03-22T13:46:22.458Z,10.40
2023-03-22T13:48:55.414Z,9.70
2023-03-22T13:51:30.628Z,9.90
2023-03-22T13:54:14.672Z,8.50
2023-03-22T13:57:01.533Z,10.50
2023-03-22T14:00:13.384Z,9.30
2023-03-22T14:02:45.952Z,8.60
2023-03-22T14:05:18.828Z,7.60
2023-03-22T14:07:52.061Z,8.60
2023-03-22T14:10:41.775Z,8.00
2023-03-22T14:13:38.446Z,9.50
2023-03-22T14:16:34.733Z,8.90
2023-03-22T14:19:07.158Z,8.80
2023-03-22T14:21:39.892Z,8.50
